Time;durP1;ratioP1;P1;durP2;ratioP2;P2;SDS_P1;SDS_P2;PMS_P1;PMS_P2;Temp;Humidity;BMP_temperature;BMP_pressure;BME280_temperature;BME280_humidity;BME280_pressure;Samples;Min_cycle;Max_cycle;Signal;HPM_P1;HPM_P2
2024/01/26 00:01:50;;;;;;;1.70;1.60;;;;;;;-2.08;100.00;101303.13;5053311;28;20045;-66
2024/01/26 00:04:16;;;;;;;2.07;1.87;;;;;;;-2.22;100.00;101286.31;5055436;28;20408;-65
2024/01/26 00:06:41;;;;;;;3.13;2.03;;;;;;;-2.02;100.00;101311.53;5055878;28;20095;-65
2024/01/26 00:09:10;;;;;;;2.67;2.47;;;;;;;-2.02;100.00;101313.31;5055438;28;20033;-65
2024/01/26 00:11:37;;;;;;;5.20;2.60;;;;;;;-2.08;100.00;101314.41;5056111;28;20102;-65
2024/01/26 00:14:03;;;;;;;3.57;2.27;;;;;;;-2.10;100.00;101312.78;5056691;28;20254;-66
2024/01/26 00:16:29;;;;;;;2.50;2.30;;;;;;;-2.22;100.00;101301.97;5057041;28;20805;-65
2024/01/26 00:18:57;;;;;;;2.80;1.93;;;;;;;-2.11;100.00;101308.47;5055898;28;20291;-64
2024/01/26 00:21:23;;;;;;;5.50;2.10;;;;;;;-2.25;100.00;101296.06;5056971;28;20052;-65
2024/01/26 00:23:48;;;;;;;1.60;1.50;;;;;;;-2.30;100.00;101287.59;5056554;28;20045;-65
2024/01/26 00:26:14;;;;;;;2.73;1.80;;;;;;;-2.19;100.00;101320.09;5056487;28;20037;-65
2024/01/26 00:28:39;;;;;;;4.13;2.40;;;;;;;-2.15;100.00;101328.66;5057468;28;20040;-63
2024/01/26 00:31:05;;;;;;;4.87;2.37;;;;;;;-2.22;100.00;101309.81;5057549;28;20051;-66
2024/01/26 00:33:31;;;;;;;5.97;2.73;;;;;;;-2.14;100.00;101322.50;5057410;28;20063;-64
2024/01/26 00:35:56;;;;;;;2.73;2.10;;;;;;;-2.23;100.00;101307.28;5054286;28;20508;-64
2024/01/26 00:38:21;;;;;;;3.80;2.47;;;;;;;-2.26;100.00;101310.03;5055364;28;20044;-65
2024/01/26 00:40:47;;;;;;;4.93;2.63;;;;;;;-2.15;100.00;101344.31;5055001;28;20117;-65
2024/01/26 00:43:13;;;;;;;5.13;2.57;;;;;;;-2.21;100.00;101321.94;5055134;28;20040;-65
2024/01/26 00:45:39;;;;;;;2.30;1.90;;;;;;;-2.23;100.00;101331.59;5055168;28;20263;-65
2024/01/26 00:48:05;;;;;;;4.90;2.63;;;;;;;-2.15;100.00;101348.69;5055661;28;20033;-65
2024/01/26 00:50:30;;;;;;;3.67;2.57;;;;;;;-2.24;100.00;101329.06;5054762;28;20448;-67
2024/01/26 00:52:57;;;;;;;3.17;2.07;;;;;;;-2.14;100.00;101345.16;5055196;28;20264;-66
2024/01/26 00:55:23;;;;;;;5.27;2.73;;;;;;;-2.39;100.00;101314.91;5054585;28;20029;-65
2024/01/26 00:57:48;;;;;;;2.50;2.30;;;;;;;-2.19;100.00;101348.81;5054600;28;20812;-64
2024/01/26 01:00:16;;;;;;;4.47;2.40;;;;;;;-2.26;100.00;101344.78;5053275;28;20032;-65
2024/01/26 01:02:42;;;;;;;3.07;2.27;;;;;;;-2.16;100.00;101352.19;5054374;28;20476;-66
2024/01/26 01:05:07;;;;;;;2.90;2.60;;;;;;;-2.40;100.00;101318.44;5055149;28;20263;-68
2024/01/26 01:07:33;;;;;;;2.63;2.43;;;;;;;-2.15;100.00;101365.19;5054452;28;20349;-65
2024/01/26 01:09:58;;;;;;;6.07;3.03;;;;;;;-2.16;100.00;101370.47;5054335;28;20430;-64
2024/01/26 01:12:23;;;;;;;4.87;3.00;;;;;;;-2.59;100.00;101302.75;5054002;28;20040;-65
2024/01/26 01:14:49;;;;;;;6.27;2.97;;;;;;;-2.33;100.00;101355.53;5055202;28;20079;-65
2024/01/26 01:17:15;;;;;;;3.70;2.83;;;;;;;-2.46;100.00;101344.78;5054070;28;20382;-64
2024/01/26 01:19:41;;;;;;;6.60;2.87;;;;;;;-2.30;100.00;101379.75;5053808;28;20091;-67
2024/01/26 01:22:06;;;;;;;6.83;3.27;;;;;;;-2.41;100.00;101368.91;5053984;28;20037;-65
2024/01/26 01:24:35;;;;;;;3.07;2.77;;;;;;;-2.51;100.00;101351.97;5053721;28;20060;-66
2024/01/26 01:27:00;;;;;;;3.85;2.50;;;;;;;-2.44;100.00;101369.03;5054056;28;20279;-66
2024/01/26 01:29:26;;;;;;;6.37;3.90;;;;;;;-2.46;100.00;101352.59;5054015;28;20469;-65
2024/01/26 01:31:51;;;;;;;3.40;2.40;;;;;;;-2.32;100.00;101378.94;5052538;28;20040;-66
2024/01/26 01:34:17;;;;;;;4.97;3.13;;;;;;;-2.30;100.00;101382.34;5053958;28;20036;-66
2024/01/26 01:36:42;;;;;;;4.73;4.07;;;;;;;-2.42;100.00;101350.72;5054817;28;20531;-65
2024/01/26 01:39:08;;;;;;;3.10;2.70;;;;;;;-2.33;100.00;101369.41;5053708;28;20372;-66
2024/01/26 01:41:33;;;;;;;4.37;2.73;;;;;;;-2.29;100.00;101370.16;5052474;28;20123;-67
2024/01/26 01:43:59;;;;;;;4.57;3.23;;;;;;;-2.58;100.00;101340.09;5052326;28;20086;-65
2024/01/26 01:46:26;;;;;;;4.43;3.40;;;;;;;-2.31;100.00;101380.66;5052203;28;20175;-65
2024/01/26 01:48:52;;;;;;;5.00;3.40;;;;;;;-2.31;100.00;101385.03;5053653;28;20267;-66
2024/01/26 01:51:17;;;;;;;5.80;3.73;;;;;;;-2.25;100.00;101388.22;5052543;28;20299;-65
2024/01/26 01:53:43;;;;;;;4.73;3.40;;;;;;;-2.31;100.00;101375.44;5053385;28;20738;-65
2024/01/26 01:56:11;;;;;;;7.10;4.13;;;;;;;-2.33;100.00;101372.03;5053558;28;20083;-66
2024/01/26 01:58:39;;;;;;;3.95;2.80;;;;;;;-2.44;100.00;101358.59;5053736;28;20060;-64
2024/01/26 02:01:05;;;;;;;3.75;2.92;;;;;;;-2.26;100.00;101388.28;5053570;28;20049;-64
2024/01/26 02:03:31;;;;;;;3.90;3.50;;;;;;;-2.40;100.00;101374.97;5053625;28;20508;-65
2024/01/26 02:05:57;;;;;;;4.50;3.67;;;;;;;-2.39;100.00;101380.13;5053899;28;20059;-65
2024/01/26 02:08:22;;;;;;;5.40;2.87;;;;;;;-2.44;100.00;101382.06;5054242;28;20124;-65
2024/01/26 02:10:48;;;;;;;5.00;3.10;;;;;;;-2.53;100.00;101365.06;5035550;28;20794;-65
2024/01/26 02:13:13;;;;;;;4.13;2.87;;;;;;;-2.43;100.00;101391.59;5053318;28;20532;-65
2024/01/26 02:15:39;;;;;;;4.73;3.23;;;;;;;-2.37;100.00;101400.91;5053132;28;20120;-64
2024/01/26 02:18:13;;;;;;;3.55;2.97;;;;;;;-2.43;100.00;101399.44;5053114;28;20066;-64
2024/01/26 02:20:39;;;;;;;7.60;3.60;;;;;;;-2.36;100.00;101398.25;5052843;28;20123;-63
2024/01/26 02:23:05;;;;;;;4.90;3.20;;;;;;;-2.35;100.00;101402.56;5054117;28;20044;-66
2024/01/26 02:25:30;;;;;;;5.07;3.40;;;;;;;-2.24;100.00;101415.16;5052847;28;20354;-66
2024/01/26 02:27:56;;;;;;;7.67;3.50;;;;;;;-2.17;100.00;101413.13;5052680;28;20112;-65
2024/01/26 02:30:21;;;;;;;5.20;2.70;;;;;;;-2.17;100.00;101428.78;5051015;28;20041;-66
2024/01/26 02:32:47;;;;;;;5.10;3.03;;;;;;;-2.30;100.00;101418.88;5052915;28;20552;-66
2024/01/26 02:35:12;;;;;;;3.47;2.70;;;;;;;-2.21;100.00;101423.69;5052067;28;20033;-65
2024/01/26 02:37:38;;;;;;;3.03;2.67;;;;;;;-2.26;100.00;101430.88;5052245;28;20037;-65
2024/01/26 02:40:04;;;;;;;4.60;2.57;;;;;;;-2.27;100.00;101429.19;5052099;28;20405;-65
2024/01/26 02:42:29;;;;;;;4.00;2.73;;;;;;;-2.52;100.00;101410.25;5052732;28;20039;-65
2024/01/26 02:44:55;;;;;;;3.90;2.73;;;;;;;-2.44;100.00;101439.47;5051722;28;20432;-65
2024/01/26 02:47:21;;;;;;;5.40;2.73;;;;;;;-2.43;100.00;101435.94;5052421;28;20029;-65
2024/01/26 02:49:46;;;;;;;4.33;3.17;;;;;;;-2.46;100.00;101441.28;5050925;28;20295;-63
2024/01/26 02:52:12;;;;;;;4.07;2.73;;;;;;;-2.43;100.00;101454.19;5052226;28;20124;-64
2024/01/26 02:54:37;;;;;;;4.23;2.63;;;;;;;-2.58;100.00;101436.59;5052389;28;20068;-64
2024/01/26 02:57:03;;;;;;;3.60;2.50;;;;;;;-2.57;100.00;101431.31;5052394;28;20082;-65
2024/01/26 02:59:29;;;;;;;5.20;3.00;;;;;;;-2.37;100.00;101458.31;5052312;28;20076;-64
2024/01/26 03:01:54;;;;;;;4.87;3.20;;;;;;;-2.29;100.00;101459.72;5052420;28;20553;-64
2024/01/26 03:04:20;;;;;;;6.07;3.70;;;;;;;-2.37;100.00;101453.09;5050868;28;20029;-66
2024/01/26 03:06:46;;;;;;;5.80;3.80;;;;;;;-2.45;100.00;101444.75;5052172;28;20025;-64
2024/01/26 03:09:12;;;;;;;4.03;3.03;;;;;;;-3.01;100.00;101351.44;5052015;28;20385;-64
2024/01/26 03:11:39;;;;;;;5.20;3.30;;;;;;;-2.70;100.00;101406.63;5051258;28;20291;-65
2024/01/26 03:14:06;;;;;;;4.67;2.97;;;;;;;-2.47;100.00;101455.25;5051015;28;20066;-64
2024/01/26 03:16:34;;;;;;;5.83;3.10;;;;;;;-2.55;100.00;101470.34;5052664;28;20294;-66
2024/01/26 03:19:01;;;;;;;4.60;3.53;;;;;;;-2.67;100.00;101460.41;5050964;28;20295;-65
2024/01/26 03:21:26;;;;;;;4.37;2.80;;;;;;;-2.73;100.00;101465.88;5051545;28;20056;-64
2024/01/26 03:23:52;;;;;;;5.77;2.80;;;;;;;-2.76;100.00;101461.63;5050710;28;20271;-66
2024/01/26 03:26:18;;;;;;;4.13;3.00;;;;;;;-2.97;100.00;101429.44;5051403;28;20253;-63
2024/01/26 03:28:43;;;;;;;6.27;2.90;;;;;;;-2.79;100.00;101463.50;5051298;28;20508;-69
2024/01/26 03:31:09;;;;;;;3.73;3.40;;;;;;;-2.73;100.00;101484.13;5051203;28;20052;-65
2024/01/26 03:33:34;;;;;;;5.03;2.83;;;;;;;-2.70;100.00;101482.22;5051388;28;20078;-64
2024/01/26 03:36:00;;;;;;;5.00;3.27;;;;;;;-2.69;100.00;101477.88;5050683;28;20056;-65
2024/01/26 03:38:25;;;;;;;3.60;2.60;;;;;;;-2.68;100.00;101484.78;5050143;28;20041;-66
2024/01/26 03:40:50;;;;;;;4.60;3.10;;;;;;;-2.86;100.00;101460.31;5051280;28;20037;-64
2024/01/26 03:43:16;;;;;;;5.80;2.80;;;;;;;-2.81;100.00;101468.78;5052063;28;20052;-67
2024/01/26 03:45:42;;;;;;;4.10;2.57;;;;;;;-2.70;100.00;101484.00;5051608;28;20043;-65
2024/01/26 03:48:07;;;;;;;3.17;2.87;;;;;;;-2.90;100.00;101487.38;5051302;28;20036;-66
2024/01/26 03:50:33;;;;;;;5.20;3.40;;;;;;;-2.99;100.00;101483.38;5050879;28;20033;-66
2024/01/26 03:52:59;;;;;;;3.65;3.08;;;;;;;-3.03;100.00;101479.19;5033711;28;20037;-65
2024/01/26 03:55:24;;;;;;;4.67;2.60;;;;;;;-2.90;100.00;101488.22;5051410;28;20044;-64
2024/01/26 03:57:50;;;;;;;2.97;2.70;;;;;;;-2.89;100.00;101497.75;5051439;28;20112;-65
2024/01/26 04:00:16;;;;;;;4.43;3.40;;;;;;;-2.83;100.00;101497.53;5051695;28;20091;-65
2024/01/26 04:02:41;;;;;;;3.72;2.70;;;;;;;-3.01;100.00;101473.91;5051283;28;20095;-64
2024/01/26 04:05:07;;;;;;;6.37;2.70;;;;;;;-2.89;100.00;101492.56;5051219;28;20497;-67
2024/01/26 04:07:34;;;;;;;4.90;2.83;;;;;;;-2.77;100.00;101512.06;5051587;28;20037;-64
2024/01/26 04:10:00;;;;;;;7.32;3.38;;;;;;;-2.68;100.00;101513.47;5051566;28;20041;-64
2024/01/26 04:12:26;;;;;;;3.93;3.00;;;;;;;-2.67;100.00;101502.13;5051751;28;20079;-65
2024/01/26 04:14:51;;;;;;;3.97;3.10;;;;;;;-2.76;100.00;101518.13;5051177;28;20087;-64
2024/01/26 04:17:21;;;;;;;5.20;2.97;;;;;;;-3.01;100.00;101471.31;5050912;28;20136;-65
2024/01/26 04:19:46;;;;;;;3.97;3.13;;;;;;;-2.81;100.00;101500.91;5051048;28;20045;-67
2024/01/26 04:22:12;;;;;;;9.93;3.20;;;;;;;-2.84;100.00;101489.75;5051271;28;20086;-64
2024/01/26 04:24:37;;;;;;;4.53;2.77;;;;;;;-2.86;100.00;101502.84;5051511;28;20381;-65
2024/01/26 04:27:03;;;;;;;3.33;3.03;;;;;;;-2.83;100.00;101513.16;5052389;28;20073;-65
2024/01/26 04:29:28;;;;;;;4.37;3.43;;;;;;;-2.94;100.00;101489.25;5052431;28;20037;-64
2024/01/26 04:31:54;;;;;;;3.50;2.63;;;;;;;-2.87;100.00;101500.31;5051538;28;20040;-67
2024/01/26 04:34:19;;;;;;;5.00;3.30;;;;;;;-2.91;100.00;101499.56;5052882;28;20037;-65
2024/01/26 04:36:48;;;;;;;3.67;3.20;;;;;;;-2.90;100.00;101485.59;5052406;28;20412;-66
2024/01/26 04:39:15;;;;;;;3.55;3.03;;;;;;;-3.50;100.00;101410.63;5053367;28;20094;-67
2024/01/26 04:41:41;;;;;;;5.38;3.10;;;;;;;-2.84;100.00;101513.22;5051451;28;20040;-65
2024/01/26 04:44:06;;;;;;;3.00;2.60;;;;;;;-2.79;100.00;101528.69;5052656;28;20040;-67
2024/01/26 04:46:32;;;;;;;3.00;2.70;;;;;;;-2.83;100.00;101525.34;5051983;28;20048;-66
2024/01/26 04:48:57;;;;;;;7.40;3.13;;;;;;;-2.84;100.00;101537.53;5055861;28;20029;-67
2024/01/26 04:51:23;;;;;;;5.57;3.70;;;;;;;-3.85;100.00;101372.91;5056248;28;20532;-64
2024/01/26 04:53:48;;;;;;;4.77;3.37;;;;;;;-2.85;100.00;101528.00;5055269;28;20057;-66
2024/01/26 04:56:14;;;;;;;5.73;3.67;;;;;;;-2.96;100.00;101501.50;5054694;28;20041;-67
2024/01/26 04:58:39;;;;;;;4.97;3.90;;;;;;;-2.65;100.00;101537.66;5054626;28;20128;-63
2024/01/26 05:01:06;;;;;;;5.97;3.47;;;;;;;-2.65;100.00;101544.63;5054831;28;20052;-65
2024/01/26 05:03:32;;;;;;;4.03;3.30;;;;;;;-2.82;100.00;101522.69;5054422;28;20044;-64
2024/01/26 05:05:57;;;;;;;10.17;4.30;;;;;;;-2.81;100.00;101519.16;5054612;28;20280;-65
2024/01/26 05:08:23;;;;;;;4.83;3.50;;;;;;;-2.73;100.00;101534.50;5054279;28;20040;-64
2024/01/26 05:10:48;;;;;;;8.60;4.53;;;;;;;-2.67;100.00;101528.19;5035981;28;20132;-65
2024/01/26 05:13:14;;;;;;;6.77;4.70;;;;;;;-2.58;100.00;101533.06;5054325;28;20388;-66
2024/01/26 05:15:39;;;;;;;5.50;3.47;;;;;;;-2.36;100.00;101546.94;5052884;28;20167;-64
2024/01/26 05:18:05;;;;;;;4.87;3.70;;;;;;;-2.37;100.00;101563.50;5053915;28;20053;-65
2024/01/26 05:20:31;;;;;;;7.13;4.55;;;;;;;-2.60;100.00;101538.34;5054191;28;20047;-66
2024/01/26 05:22:56;;;;;;;3.87;3.47;;;;;;;-2.53;100.00;101552.00;5053710;28;20041;-64
2024/01/26 05:25:22;;;;;;;10.10;4.97;;;;;;;-2.72;100.00;101530.13;5054298;28;20033;-65
2024/01/26 05:27:47;;;;;;;10.03;5.73;;;;;;;-2.65;100.00;101547.22;5053690;28;20040;-66
2024/01/26 05:30:13;;;;;;;8.43;4.97;;;;;;;-2.60;100.00;101550.53;5054007;28;20040;-64
2024/01/26 05:32:38;;;;;;;6.23;3.93;;;;;;;-2.57;100.00;101546.06;5054800;28;20136;-66
2024/01/26 05:35:04;;;;;;;8.30;4.67;;;;;;;-2.51;100.00;101555.38;5053563;28;20041;-65
2024/01/26 05:37:30;;;;;;;6.40;4.00;;;;;;;-2.48;100.00;101563.09;5053667;28;20041;-65
2024/01/26 05:39:56;;;;;;;9.53;4.03;;;;;;;-2.37;100.00;101552.22;5035326;28;20186;-66
2024/01/26 05:42:21;;;;;;;6.07;4.30;;;;;;;-2.36;100.00;101549.56;5053316;28;20102;-66
2024/01/26 05:44:47;;;;;;;9.43;4.93;;;;;;;-2.25;100.00;101547.38;5051921;28;20029;-64
2024/01/26 05:47:12;;;;;;;6.23;4.30;;;;;;;-2.96;100.00;101428.50;5052901;28;20036;-66
2024/01/26 05:49:37;;;;;;;6.10;4.60;;;;;;;-2.47;100.00;101494.38;5053599;28;20037;-67
2024/01/26 05:52:03;;;;;;;7.33;4.30;;;;;;;-2.30;100.00;101533.69;5053259;28;20071;-66
2024/01/26 05:54:29;;;;;;;4.33;3.63;;;;;;;-2.16;100.00;101550.53;5052868;28;20128;-65
2024/01/26 05:56:54;;;;;;;7.10;4.37;;;;;;;-2.09;100.00;101551.97;5052978;28;20090;-67
2024/01/26 05:59:20;;;;;;;5.90;3.73;;;;;;;-2.15;100.00;101544.38;5052102;28;20041;-64
2024/01/26 06:01:45;;;;;;;9.80;5.20;;;;;;;-2.21;100.00;101551.56;5051493;28;20041;-66
2024/01/26 06:04:11;;;;;;;5.47;3.70;;;;;;;-2.25;100.00;101544.78;5053178;28;20095;-67
2024/01/26 06:06:36;;;;;;;5.63;3.77;;;;;;;-2.18;100.00;101561.03;5051772;28;20043;-64
2024/01/26 06:09:02;;;;;;;5.87;3.50;;;;;;;-2.32;100.00;101545.91;5051361;28;20040;-65
2024/01/26 06:11:28;;;;;;;7.43;4.03;;;;;;;-2.37;100.00;101550.47;5049830;28;20045;-70
2024/01/26 06:13:54;;;;;;;7.37;4.10;;;;;;;-2.25;100.00;101563.03;5023848;28;20493;-69
2024/01/26 06:16:19;;;;;;;6.43;4.00;;;;;;;-2.64;100.00;101491.56;5014618;28;20034;-69
2024/01/26 06:18:45;;;;;;;6.10;3.63;;;;;;;-2.24;100.00;101549.09;5035762;28;20278;-69
2024/01/26 06:21:11;;;;;;;4.97;4.03;;;;;;;-2.11;100.00;101564.22;5052284;28;20130;-71
2024/01/26 06:23:38;;;;;;;5.40;3.63;;;;;;;-2.03;100.00;101577.81;5052386;28;20037;-69
2024/01/26 06:26:04;;;;;;;9.43;3.73;;;;;;;-2.00;100.00;101577.72;5052499;28;20264;-70
2024/01/26 06:28:29;;;;;;;7.20;3.57;;;;;;;-1.93;100.00;101581.75;5050082;28;20255;-68
2024/01/26 06:30:55;;;;;;;5.17;3.50;;;;;;;-2.00;100.00;101565.50;5052145;28;20041;-67
2024/01/26 06:33:22;;;;;;;6.70;3.93;;;;;;;-1.98;100.00;101578.50;5052201;28;20175;-70
2024/01/26 06:35:47;;;;;;;7.50;4.60;;;;;;;-2.00;100.00;101578.56;5052732;28;20036;-71
2024/01/26 06:38:13;;;;;;;4.60;3.67;;;;;;;-2.05;100.00;101563.97;5053005;28;20263;-69
2024/01/26 06:40:39;;;;;;;6.00;4.07;;;;;;;-1.94;100.00;101593.13;5051818;28;20419;-69
2024/01/26 06:43:08;;;;;;;6.77;3.30;;;;;;;-2.08;100.00;101571.94;5051342;28;20110;-71
2024/01/26 06:45:34;;;;;;;5.40;3.37;;;;;;;-1.93;100.00;101594.81;5050309;28;20294;-70
2024/01/26 06:48:00;;;;;;;3.53;2.67;;;;;;;-2.05;100.00;101582.25;5052414;28;20692;-72
2024/01/26 06:50:26;;;;;;;6.23;3.50;;;;;;;-2.16;100.00;101568.78;5051895;28;20287;-69
2024/01/26 06:52:51;;;;;;;6.43;3.57;;;;;;;-2.16;100.00;101561.81;5030950;28;20789;-67
2024/01/26 06:55:17;;;;;;;4.10;3.27;;;;;;;-2.15;100.00;101578.31;5032540;28;20064;-69
2024/01/26 06:57:43;;;;;;;6.47;3.57;;;;;;;-2.06;100.00;101583.16;5032386;28;20039;-64
2024/01/26 07:00:09;;;;;;;5.00;3.83;;;;;;;-2.03;100.00;101578.66;5032168;28;20038;-66
2024/01/26 07:02:34;;;;;;;6.60;3.70;;;;;;;-2.11;100.00;101559.00;5052595;28;20747;-66
2024/01/26 07:05:00;;;;;;;6.50;3.47;;;;;;;-2.01;100.00;101583.84;5050449;28;20363;-66
2024/01/26 07:07:25;;;;;;;5.33;3.70;;;;;;;-2.04;100.00;101576.97;5051965;28;20037;-67
2024/01/26 07:09:51;;;;;;;8.03;3.60;;;;;;;-2.10;100.00;101581.59;5033640;28;20484;-66
2024/01/26 07:12:16;;;;;;;5.13;3.57;;;;;;;-2.14;100.00;101586.09;5051803;28;20159;-66
2024/01/26 07:14:42;;;;;;;4.77;3.00;;;;;;;-2.18;100.00;101581.91;5051639;28;20041;-69
2024/01/26 07:17:08;;;;;;;7.17;4.03;;;;;;;-2.08;100.00;101593.66;5049229;28;20505;-70
2024/01/26 07:19:34;;;;;;;7.13;3.93;;;;;;;-2.23;100.00;101565.59;5047169;28;20040;-68
2024/01/26 07:21:59;;;;;;;6.80;3.83;;;;;;;-2.11;100.00;101587.72;5040607;28;20532;-71
2024/01/26 07:24:25;;;;;;;5.53;3.40;;;;;;;-2.09;100.00;101594.56;5046615;28;20322;-68
2024/01/26 07:26:51;;;;;;;3.67;3.10;;;;;;;-2.22;100.00;101578.56;5046767;28;20060;-69
2024/01/26 07:29:16;;;;;;;6.10;3.73;;;;;;;-2.15;100.00;101604.41;5035980;28;20036;-66
2024/01/26 07:31:43;;;;;;;6.93;3.83;;;;;;;-2.21;100.00;101595.06;5039739;28;20037;-67
2024/01/26 07:34:08;;;;;;;3.43;3.13;;;;;;;-2.50;100.00;101544.03;5036217;28;20045;-68
2024/01/26 07:36:36;;;;;;;6.13;3.90;;;;;;;-2.11;100.00;101585.97;5038661;28;20276;-69
2024/01/26 07:39:04;;;;;;;4.38;3.58;;;;;;;-1.91;100.00;101629.53;5039694;28;20029;-68
2024/01/26 07:41:30;;;;;;;6.50;3.70;;;;;;;-2.14;100.00;101585.22;5039914;28;20053;-66
2024/01/26 07:43:55;;;;;;;9.07;3.97;;;;;;;-2.11;100.00;101616.44;5039724;28;20694;-67
2024/01/26 07:46:21;;;;;;;8.30;3.87;;;;;;;-2.13;100.00;101608.66;5038899;28;20044;-68
2024/01/26 07:48:46;;;;;;;8.27;3.73;;;;;;;-2.12;100.00;101610.34;5036667;28;20032;-68
2024/01/26 07:51:11;;;;;;;8.43;3.63;;;;;;;-2.06;100.00;101607.50;5035908;28;20038;-69
2024/01/26 07:53:37;;;;;;;4.70;4.30;;;;;;;-1.99;100.00;101618.56;5035225;28;20132;-67
2024/01/26 07:56:03;;;;;;;6.00;3.90;;;;;;;-2.08;100.00;101605.88;5089660;28;20029;-66
2024/01/26 07:58:28;;;;;;;5.13;3.30;;;;;;;-2.14;100.00;101606.13;5044071;28;20102;-65
2024/01/26 08:00:54;;;;;;;5.10;4.23;;;;;;;-2.20;100.00;101602.84;5045818;28;20040;-67
2024/01/26 08:03:19;;;;;;;7.63;3.87;;;;;;;-1.92;100.00;101638.28;5040723;28;20041;-68
2024/01/26 08:05:45;;;;;;;4.30;3.10;;;;;;;-1.91;100.00;101635.59;5036182;28;20044;-67
2024/01/26 08:08:10;;;;;;;5.40;4.07;;;;;;;-1.94;100.00;101629.66;5039743;28;20651;-69
2024/01/26 08:10:36;;;;;;;11.40;3.63;;;;;;;-2.02;100.00;101622.16;5040667;28;20053;-69
2024/01/26 08:13:01;;;;;;;9.47;4.27;;;;;;;-1.92;100.00;101648.72;5048594;28;20132;-70
2024/01/26 08:15:27;;;;;;;7.87;3.70;;;;;;;-2.12;100.00;101612.13;5043659;28;20405;-73
2024/01/26 08:17:56;;;;;;;5.53;3.20;;;;;;;-1.94;100.00;101635.72;5030757;28;20429;-69
2024/01/26 08:20:21;;;;;;;;;;;;;;;-1.85;100.00;101638.88;5040312;28;20086;-69
2024/01/26 08:22:47;;;;;;;5.67;3.83;;;;;;;-1.91;100.00;101651.28;5047233;28;19916;-67
2024/01/26 08:25:12;;;;;;;4.20;3.17;;;;;;;-1.97;100.00;101650.69;5043612;28;20176;-72
2024/01/26 08:27:41;;;;;;;3.80;2.67;;;;;;;-2.14;100.00;101629.59;5043190;28;20251;-72
2024/01/26 08:30:06;;;;;;;5.93;3.72;;;;;;;-2.23;100.00;101613.41;5040687;28;20049;-71
2024/01/26 08:32:32;;;;;;;7.40;3.50;;;;;;;-2.02;100.00;101642.19;5050437;28;20491;-69
2024/01/26 08:34:58;;;;;;;4.33;3.23;;;;;;;-1.81;100.00;101656.97;5052133;28;20372;-68
2024/01/26 08:37:23;;;;;;;4.63;2.80;;;;;;;-1.93;100.00;101642.66;5052886;28;20099;-67
2024/01/26 08:39:49;;;;;;;4.53;3.57;;;;;;;-1.82;100.00;101655.28;5052652;28;20047;-68
2024/01/26 08:42:14;;;;;;;5.37;3.23;;;;;;;-2.01;100.00;101623.84;5048176;28;20552;-70
2024/01/26 08:44:40;;;;;;;5.23;3.57;;;;;;;-2.02;100.00;101598.66;5052767;28;20037;-71
2024/01/26 08:47:08;;;;;;;3.90;3.03;;;;;;;-1.58;100.00;101658.66;5054545;28;20166;-70
2024/01/26 08:49:34;;;;;;;4.00;2.95;;;;;;;-1.73;100.00;101634.03;5051979;28;20041;-69
2024/01/26 08:51:59;;;;;;;5.57;3.57;;;;;;;-1.62;100.00;101655.31;5044711;28;20043;-69
2024/01/26 08:54:25;;;;;;;5.40;3.67;;;;;;;-1.57;100.00;101653.34;5048690;28;20037;-67
2024/01/26 08:56:51;;;;;;;7.63;3.27;;;;;;;-1.65;100.00;101642.38;5050724;28;20040;-69
2024/01/26 08:59:16;;;;;;;5.73;3.30;;;;;;;-1.59;100.00;101636.06;5048280;28;20066;-70
2024/01/26 09:01:42;;;;;;;3.87;3.23;;;;;;;-1.50;100.00;101645.25;5047305;28;20120;-68
2024/01/26 09:04:08;;;;;;;4.73;3.03;;;;;;;-1.52;100.00;101640.09;5051616;28;20123;-69
2024/01/26 09:06:37;;;;;;;6.93;3.93;;;;;;;-1.58;100.00;101632.53;5050999;28;20526;-66
2024/01/26 09:09:06;;;;;;;4.63;3.53;;;;;;;-1.60;100.00;101640.44;5048201;28;20044;-68
2024/01/26 09:11:32;;;;;;;8.27;3.57;;;;;;;-1.54;100.00;101636.72;5050483;28;20052;-66
2024/01/26 09:13:57;;;;;;;5.10;2.93;;;;;;;-1.72;100.00;101607.00;5047393;28;20271;-67
2024/01/26 09:16:23;;;;;;;4.10;3.07;;;;;;;-1.52;100.00;101644.47;5043950;28;20041;-69
2024/01/26 09:18:49;;;;;;;6.67;2.83;;;;;;;-1.68;100.00;101632.06;5052791;28;20408;-64
2024/01/26 09:21:14;;;;;;;4.10;2.70;;;;;;;-1.63;100.00;101647.53;5052514;28;20045;-67
2024/01/26 09:23:43;;;;;;;6.00;3.40;;;;;;;-1.56;100.00;101652.44;5045423;28;20417;-68
2024/01/26 09:26:09;;;;;;;4.97;3.35;;;;;;;-1.63;100.00;101645.78;5042083;28;20032;-68
2024/01/26 09:28:35;;;;;;;2.90;2.63;;;;;;;-1.68;100.00;101644.28;5052552;28;20500;-70
2024/01/26 09:31:00;;;;;;;2.87;2.67;;;;;;;-1.76;100.00;101635.88;5051432;28;20298;-67
2024/01/26 09:33:26;;;;;;;3.03;2.30;;;;;;;-1.70;100.00;101644.34;5051738;28;20037;-72
2024/01/26 09:35:51;;;;;;;3.33;2.80;;;;;;;-1.83;100.00;101617.00;5050136;28;20037;-71
2024/01/26 09:38:18;;;;;;;4.10;2.43;;;;;;;-1.85;100.00;101616.22;5049340;28;20040;-72
2024/01/26 09:40:44;;;;;;;3.77;2.80;;;;;;;-1.93;100.00;101593.06;5050483;28;20345;-71
2024/01/26 09:43:09;;;;;;;3.20;2.87;;;;;;;-1.53;100.00;101663.69;5052477;28;20346;-70
2024/01/26 09:45:35;;;;;;;10.27;6.30;;;;;;;-1.73;100.00;101633.19;5049717;28;20071;-71
2024/01/26 09:48:05;;;;;;;3.27;2.97;;;;;;;-1.71;100.00;101647.03;5050071;28;20028;-66
2024/01/26 09:50:30;;;;;;;3.40;2.80;;;;;;;-1.99;100.00;101595.06;5050525;28;20029;-68
2024/01/26 09:52:57;;;;;;;3.57;3.00;;;;;;;-1.64;100.00;101654.53;5049311;28;20270;-67
2024/01/26 09:55:24;;;;;;;4.30;3.63;;;;;;;-1.59;100.00;101642.13;5050499;28;20136;-68
2024/01/26 09:57:53;;;;;;;3.30;2.97;;;;;;;-1.44;100.00;101650.25;5052486;28;20264;-66
2024/01/26 10:00:19;;;;;;;;;;;;;;;-1.27;100.00;101638.16;5051751;28;20325;-67
2024/01/26 10:02:44;;;;;;;5.33;3.10;;;;;;;-1.31;100.00;101625.28;5050866;28;20346;-69
2024/01/26 10:05:13;;;;;;;4.23;2.90;;;;;;;-1.35;100.00;101627.19;5046735;28;20032;-65
2024/01/26 10:07:38;;;;;;;4.93;4.00;;;;;;;-1.73;100.00;101560.91;5048786;28;20028;-66
2024/01/26 10:10:10;;;;;;;5.43;2.90;;;;;;;-1.36;100.00;101619.41;5042656;28;20040;-72
2024/01/26 10:12:36;;;;;;;3.70;3.17;;;;;;;-1.13;100.00;101640.19;5047958;28;20396;-69
2024/01/26 10:15:03;;;;;;;6.80;3.50;;;;;;;-1.12;100.00;101620.97;5048319;28;20279;-69
2024/01/26 10:17:30;;;;;;;6.23;3.60;;;;;;;-1.13;100.00;101624.50;5043111;28;20061;-66
2024/01/26 10:20:14;;;;;;;6.20;3.20;;;;;;;-1.34;100.00;101594.91;5050528;28;20310;-68
2024/01/26 10:22:40;;;;;;;3.50;3.17;;;;;;;-1.08;100.00;101633.00;5050671;28;20276;-68
2024/01/26 10:25:06;;;;;;;3.57;3.23;;;;;;;-1.18;100.00;101634.28;5044094;28;20658;-72
2024/01/26 10:27:32;;;;;;;5.17;3.30;;;;;;;-1.33;100.00;101620.13;5045216;28;20291;-66
2024/01/26 10:29:58;;;;;;;5.67;3.90;;;;;;;-1.29;100.00;101623.47;5049659;28;20345;-67
2024/01/26 10:32:27;;;;;;;3.83;3.30;;;;;;;-1.76;100.00;101545.34;5043742;28;20271;-66
2024/01/26 10:34:58;;;;;;;4.03;3.63;;;;;;;-1.34;100.00;101625.44;5045527;28;20032;-70
2024/01/26 10:37:29;;;;;;;4.93;3.73;;;;;;;-1.56;100.00;101604.56;5046206;28;20287;-67
2024/01/26 10:39:56;;;;;;;3.80;3.30;;;;;;;-1.57;100.00;101608.09;5045165;28;20329;-67
2024/01/26 10:42:23;;;;;;;4.70;3.70;;;;;;;-1.59;100.00;101600.34;5048190;28;20320;-68
2024/01/26 10:44:49;;;;;;;4.60;3.07;;;;;;;-1.53;100.00;101614.03;5046808;28;20394;-66
2024/01/26 10:47:17;;;;;;;4.00;2.77;;;;;;;-1.60;100.00;101600.41;5048838;28;20283;-72
2024/01/26 10:49:48;;;;;;;4.22;2.40;;;;;;;-1.49;100.00;101611.22;5045613;28;20302;-67
2024/01/26 10:52:19;;;;;;;3.00;2.60;;;;;;;-1.54;100.00;101622.78;5043588;28;20041;-67
2024/01/26 10:54:49;;;;;;;4.73;3.07;;;;;;;-2.08;100.00;101543.22;5046010;28;20283;-68
2024/01/26 10:57:15;;;;;;;4.23;3.20;;;;;;;-1.61;100.00;101617.84;5046114;28;20278;-67
2024/01/26 10:59:43;;;;;;;6.43;2.67;;;;;;;-1.60;100.00;101621.28;5046778;28;20295;-69
2024/01/26 11:02:24;;;;;;;4.00;2.80;;;;;;;-1.61;100.00;101591.72;5049443;28;20293;-66
2024/01/26 11:04:50;;;;;;;4.07;2.77;;;;;;;-1.41;100.00;101605.72;5043231;28;20073;-68
2024/01/26 11:07:19;;;;;;;4.47;2.50;;;;;;;-1.32;100.00;101624.44;5049190;28;20307;-69
2024/01/26 11:09:46;;;;;;;4.33;2.10;;;;;;;-1.46;100.00;101623.31;5047836;28;20043;-68
2024/01/26 11:12:29;;;;;;;3.03;2.67;;;;;;;-1.49;100.00;101615.59;5047921;28;20291;-67